Time;durP1;ratioP1;P1;durP2;ratioP2;P2;SDS_P1;SDS_P2;PMS_P1;PMS_P2;Temp;Humidity;BMP_temperature;BMP_pressure;BME280_temperature;BME280_humidity;BME280_pressure;Samples;Min_cycle;Max_cycle;Signal;HPM_P1;HPM_P2
2023/03/28 05:06:15;;;;;;;1.52;1.40;;;0.30;99.90;;;;;;4953978;23;20231;-71
2023/03/28 05:08:42;;;;;;;2.43;1.83;;;0.20;99.90;;;;;;4958003;28;20206;-71
2023/03/28 05:11:08;;;;;;;4.00;2.10;;;0.20;99.90;;;;;;4957900;28;20188;-71
2023/03/28 05:13:34;;;;;;;3.03;2.77;;;0.30;99.90;;;;;;4957576;28;20211;-71
2023/03/28 05:16:00;;;;;;;2.30;2.20;;;0.30;99.90;;;;;;4957872;28;20786;-71
2023/03/28 05:18:25;;;;;;;2.77;2.20;;;0.30;99.90;;;;;;4953620;28;20491;-67
2023/03/28 05:20:51;;;;;;;1.70;1.60;;;0.30;99.90;;;;;;4938481;29;20427;-70
2023/03/28 05:23:16;;;;;;;3.17;2.20;;;0.30;99.90;;;;;;4938459;29;20182;-70
2023/03/28 05:25:42;;;;;;;3.20;2.90;;;0.40;99.90;;;;;;4938486;29;20200;-67
2023/03/28 05:28:08;;;;;;;2.93;2.73;;;0.60;99.90;;;;;;4938572;29;20181;-68
2023/03/28 05:30:34;;;;;;;2.43;2.30;;;0.80;99.90;;;;;;4936855;29;20464;-68
2023/03/28 05:33:00;;;;;;;5.33;3.40;;;1.00;99.90;;;;;;4948594;29;20181;-71
2023/03/28 05:35:26;;;;;;;3.10;2.73;;;1.30;99.90;;;;;;4949758;28;20443;-69
2023/03/28 05:37:51;;;;;;;3.60;3.30;;;1.50;99.90;;;;;;4949564;28;20417;-70
2023/03/28 05:40:17;;;;;;;4.50;3.37;;;1.70;99.90;;;;;;4947836;28;20206;-69
2023/03/28 05:42:43;;;;;;;3.07;2.50;;;1.70;99.90;;;;;;4940518;29;20240;-69
2023/03/28 05:45:11;;;;;;;2.33;2.20;;;1.80;99.90;;;;;;4937719;29;20448;-69
2023/03/28 05:47:37;;;;;;;3.38;2.97;;;1.90;99.90;;;;;;4937934;29;20560;-70
2023/03/28 05:50:03;;;;;;;3.53;2.80;;;2.00;99.90;;;;;;4937826;29;20205;-70
2023/03/28 05:52:29;;;;;;;4.57;3.30;;;2.10;99.90;;;;;;4954458;29;20420;-69
2023/03/28 05:54:55;;;;;;;3.50;3.20;;;2.30;99.90;;;;;;4956452;28;20197;-69
2023/03/28 05:57:20;;;;;;;5.60;5.20;;;2.50;99.90;;;;;;4955802;28;20263;-69
2023/03/28 05:59:47;;;;;;;3.87;3.57;;;2.80;99.90;;;;;;4956937;28;20220;-69
2023/03/28 06:02:15;;;;;;;4.85;4.28;;;3.10;99.90;;;;;;4957175;28;20408;-69
2023/03/28 06:04:41;;;;;;;4.70;3.03;;;3.50;99.90;;;;;;4956687;28;20196;-69
2023/03/28 06:07:07;;;;;;;3.45;2.33;;;3.90;99.90;;;;;;4956671;28;20193;-70
2023/03/28 06:09:33;;;;;;;3.03;2.83;;;4.10;99.90;;;;;;4953610;28;20567;-70
2023/03/28 06:12:00;;;;;;;3.47;2.50;;;4.10;99.90;;;;;;4948570;28;20174;-69
2023/03/28 06:14:27;;;;;;;4.43;3.97;;;4.20;99.90;;;;;;4951982;29;20193;-69
2023/03/28 06:16:53;;;;;;;3.00;2.50;;;4.30;99.90;;;;;;4946443;29;20173;-71
2023/03/28 06:19:19;;;;;;;3.07;2.73;;;4.50;99.90;;;;;;4943494;28;20187;-71
2023/03/28 06:21:44;;;;;;;4.00;2.65;;;4.80;99.90;;;;;;4937314;29;20634;-71
2023/03/28 06:24:10;;;;;;;4.50;2.73;;;5.00;99.90;;;;;;4951505;29;20292;-71
2023/03/28 06:26:36;;;;;;;5.10;3.33;;;5.10;99.90;;;;;;4956512;28;20173;-70
2023/03/28 06:29:03;;;;;;;5.17;3.10;;;5.30;99.90;;;;;;4955312;28;20274;-70
2023/03/28 06:31:28;;;;;;;4.68;2.95;;;5.40;99.90;;;;;;4950227;28;20428;-70
2023/03/28 06:33:54;;;;;;;5.37;3.33;;;5.40;99.90;;;;;;4936806;29;20519;-72
2023/03/28 06:36:20;;;;;;;2.57;2.37;;;5.60;99.90;;;;;;4937184;29;20180;-69
2023/03/28 06:38:46;;;;;;;2.93;2.67;;;5.90;99.90;;;;;;4937142;29;20256;-69
2023/03/28 06:41:12;;;;;;;3.25;3.05;;;6.10;99.90;;;;;;4937061;29;20416;-68
2023/03/28 06:43:37;;;;;;;4.13;3.00;;;6.40;99.90;;;;;;4936686;29;20656;-70
2023/03/28 06:46:03;;;;;;;4.20;2.90;;;6.80;99.90;;;;;;4939199;29;20689;-67
2023/03/28 06:48:30;;;;;;;3.03;2.80;;;7.20;99.90;;;;;;4947485;29;20181;-68
2023/03/28 06:50:57;;;;;;;4.82;2.28;;;7.50;99.90;;;;;;4935470;29;20429;-71
2023/03/28 06:53:23;;;;;;;2.97;2.65;;;7.80;99.90;;;;;;4943399;29;20197;-68
2023/03/28 06:55:50;;;;;;;3.60;2.70;;;8.00;99.90;;;;;;4948377;28;20231;-70
2023/03/28 06:58:17;;;;;;;3.03;2.73;;;8.30;99.90;;;;;;4935407;29;20813;-69
2023/03/28 07:00:43;;;;;;;16.23;3.57;;;8.70;99.10;;;;;;4936728;29;20469;-73
2023/03/28 07:03:09;;;;;;;4.33;3.93;;;9.30;98.00;;;;;;4938043;29;20416;-73
2023/03/28 07:05:39;;;;;;;4.20;3.10;;;9.90;96.80;;;;;;4948221;28;20867;-70
2023/03/28 07:08:09;;;;;;;3.90;3.27;;;10.40;95.30;;;;;;4952823;28;20173;-71
2023/03/28 07:10:37;;;;;;;2.60;2.40;;;10.80;94.50;;;;;;4944211;28;20461;-71
2023/03/28 07:13:03;;;;;;;2.80;2.50;;;11.10;94.10;;;;;;4936141;29;20493;-70
2023/03/28 07:15:28;;;;;;;4.53;2.23;;;11.60;93.70;;;;;;4937009;29;20435;-70
2023/03/28 07:17:54;;;;;;;4.80;2.30;;;12.20;91.70;;;;;;4946399;29;20411;-70
2023/03/28 07:20:20;;;;;;;3.37;2.93;;;12.70;90.00;;;;;;4943898;28;20336;-72
2023/03/28 07:22:46;;;;;;;8.87;2.47;;;12.90;90.10;;;;;;4935345;29;20474;-69
2023/03/28 07:25:11;;;;;;;1.63;1.53;;;12.90;90.00;;;;;;4945413;29;20200;-70
2023/03/28 07:27:37;;;;;;;2.70;1.90;;;13.00;88.40;;;;;;4955770;28;20244;-70
2023/03/28 07:30:04;;;;;;;2.20;2.00;;;13.20;85.60;;;;;;4955443;28;20252;-71
2023/03/28 07:32:30;;;;;;;2.37;2.17;;;12.80;83.90;;;;;;4940486;28;20267;-67
2023/03/28 07:34:55;;;;;;;3.60;1.87;;;12.50;86.30;;;;;;4935883;29;20458;-67
2023/03/28 07:37:21;;;;;;;2.13;1.50;;;12.50;87.20;;;;;;4942223;29;20180;-71
2023/03/28 07:39:47;;;;;;;1.70;1.60;;;12.70;86.20;;;;;;4944428;29;20177;-68
2023/03/28 07:42:15;;;;;;;1.80;1.70;;;12.60;84.10;;;;;;4945258;28;20165;-71
2023/03/28 07:44:41;;;;;;;2.23;2.03;;;12.00;84.60;;;;;;4945656;29;20833;-68
2023/03/28 07:47:07;;;;;;;3.47;2.07;;;11.20;84.60;;;;;;4942849;29;20473;-69
2023/03/28 07:49:32;;;;;;;3.03;1.87;;;10.50;88.00;;;;;;4945322;28;20196;-68
2023/03/28 07:51:58;;;;;;;2.97;2.20;;;10.60;88.60;;;;;;4945709;29;20405;-70
2023/03/28 07:54:26;;;;;;;1.87;1.77;;;11.00;88.90;;;;;;4943414;28;20233;-71
2023/03/28 07:56:52;;;;;;;3.23;1.83;;;11.80;87.20;;;;;;4952237;29;20438;-69
2023/03/28 07:59:17;;;;;;;4.67;2.20;;;12.20;85.50;;;;;;4955069;28;20444;-70
2023/03/28 08:01:44;;;;;;;2.27;1.70;;;13.20;86.00;;;;;;4941987;28;20237;-69
2023/03/28 08:04:11;;;;;;;4.33;1.87;;;14.20;82.60;;;;;;4935590;29;20239;-69
2023/03/28 08:06:39;;;;;;;2.13;1.93;;;15.00;80.10;;;;;;4935860;29;20429;-72
2023/03/28 08:09:09;;;;;;;2.00;1.90;;;15.40;76.60;;;;;;4950745;29;20456;-68
2023/03/28 08:11:35;;;;;;;5.27;1.70;;;15.80;74.20;;;;;;4945467;28;20416;-70
2023/03/28 08:14:03;;;;;;;1.80;1.77;;;15.90;76.00;;;;;;4935367;29;20429;-71
2023/03/28 08:16:29;;;;;;;3.70;1.83;;;15.70;74.00;;;;;;4935929;29;20380;-68
2023/03/28 08:18:55;;;;;;;3.63;2.13;;;14.60;75.60;;;;;;4935841;29;20392;-70
2023/03/28 08:21:21;;;;;;;3.20;1.90;;;14.60;76.30;;;;;;4949582;29;20540;-72
2023/03/28 08:23:47;;;;;;;3.30;2.37;;;14.60;75.30;;;;;;4954483;28;20424;-69
2023/03/28 08:26:12;;;;;;;5.43;2.30;;;14.10;75.40;;;;;;4949691;28;20796;-71
2023/03/28 08:28:38;;;;;;;2.40;1.47;;;14.00;77.20;;;;;;4935707;29;20182;-70
2023/03/28 08:31:15;;;;;;;2.53;1.70;;;14.30;76.40;;;;;;4939933;29;20251;-70
2023/03/28 08:33:42;;;;;;;2.77;1.80;;;15.00;75.60;;;;;;4954201;28;20264;-71
2023/03/28 08:36:08;;;;;;;2.63;1.50;;;15.70;74.60;;;;;;4954846;28;20405;-68
2023/03/28 08:38:35;;;;;;;1.67;1.50;;;16.00;70.80;;;;;;4954572;28;20421;-68
2023/03/28 08:41:39;;;;;;;1.97;1.87;;;16.50;70.30;;;;;;4947667;28;20727;-72
2023/03/28 08:44:42;;;;;;;2.50;1.67;;;17.20;70.00;;;;;;4944155;28;20505;-72
2023/03/28 08:47:13;;;;;;;3.03;2.23;;;17.40;67.00;;;;;;4954658;28;20387;-68
2023/03/28 08:49:57;;;;;;;3.00;1.90;;;16.60;67.10;;;;;;4948900;29;21008;-71
2023/03/28 08:52:23;;;;;;;2.57;1.93;;;15.70;69.50;;;;;;4940478;29;20731;-69
2023/03/28 08:54:56;;;;;;;4.07;1.63;;;15.70;67.80;;;;;;4956998;28;20443;-73
2023/03/28 08:57:26;;;;;;;3.57;1.60;;;16.10;68.50;;;;;;4958379;28;20393;-71
2023/03/28 09:00:15;;;;;;;3.60;2.10;;;16.50;69.10;;;;;;4958182;28;20379;-69
2023/03/28 09:02:42;;;;;;;2.40;2.20;;;17.40;68.40;;;;;;4956927;28;20407;-69
2023/03/28 09:05:17;;;;;;;1.70;1.60;;;18.20;66.40;;;;;;4954459;28;20447;-73
2023/03/28 09:07:49;;;;;;;2.90;1.77;;;18.60;63.50;;;;;;4954905;28;20393;-72
2023/03/28 09:10:27;;;;;;;2.87;1.80;;;17.50;61.20;;;;;;4957870;28;20427;-69
2023/03/28 09:13:16;;;;;;;2.60;1.73;;;16.30;62.70;;;;;;4948077;29;20427;-73
2023/03/28 09:15:49;;;;;;;1.97;1.87;;;15.20;67.00;;;;;;4944855;29;20430;-72
2023/03/28 09:18:27;;;;;;;4.30;2.30;;;14.00;67.30;;;;;;4946749;28;20416;-70
2023/03/28 09:21:08;;;;;;;1.40;1.30;;;13.20;68.20;;;;;;4948775;29;20491;-69
2023/03/28 09:23:52;;;;;;;1.80;1.30;;;12.80;68.10;;;;;;4957171;29;20414;-69
2023/03/28 09:26:33;;;;;;;1.70;1.33;;;12.60;68.80;;;;;;4942737;28;20508;-71
2023/03/28 09:29:07;;;;;;;1.17;1.17;;;12.00;72.30;;;;;;4957654;28;20876;-68
2023/03/28 09:32:03;;;;;;;1.37;1.23;;;11.60;72.50;;;;;;4957501;28;20406;-71
2023/03/28 09:34:42;;;;;;;1.30;1.20;;;11.30;71.70;;;;;;4945429;29;20486;-70
2023/03/28 09:37:26;;;;;;;1.47;1.33;;;11.00;68.30;;;;;;4948082;29;20413;-68
2023/03/28 09:39:54;;;;;;;1.10;1.10;;;10.60;69.10;;;;;;4948387;29;20499;-68
2023/03/28 09:42:54;;;;;;;1.80;1.00;;;10.30;71.80;;;;;;4945558;29;20410;-70
2023/03/28 09:45:31;;;;;;;1.60;1.50;;;10.30;72.90;;;;;;4940159;29;20452;-71
2023/03/28 09:47:57;;;;;;;2.57;1.33;;;10.30;74.00;;;;;;4952079;29;20423;-68
2023/03/28 09:50:22;;;;;;;1.57;1.17;;;10.20;70.30;;;;;;4957229;28;20554;-69
2023/03/28 09:52:52;;;;;;;2.40;1.40;;;10.00;72.10;;;;;;4957519;28;20539;-70
2023/03/28 09:55:20;;;;;;;1.40;0.70;;;9.70;75.40;;;;;;4957099;28;20561;-70
2023/03/28 09:58:01;;;;;;;1.80;1.47;;;9.50;75.90;;;;;;4957204;28;20434;-69
2023/03/28 10:00:26;;;;;;;1.20;1.10;;;9.20;72.50;;;;;;4957127;28;20410;-69
2023/03/28 10:02:52;;;;;;;1.40;1.30;;;9.60;74.60;;;;;;4957171;28;20487;-68
2023/03/28 10:05:38;;;;;;;1.00;1.00;;;10.10;70.70;;;;;;4955714;28;20193;-68
2023/03/28 10:08:26;;;;;;;0.87;0.87;;;10.40;70.10;;;;;;4956893;28;20419;-69
2023/03/28 10:11:05;;;;;;;1.30;1.20;;;10.60;71.00;;;;;;4957147;28;20416;-69
2023/03/28 10:13:40;;;;;;;1.47;1.37;;;11.20;72.00;;;;;;4956982;28;20844;-71
2023/03/28 10:16:09;;;;;;;2.80;1.53;;;11.40;70.70;;;;;;4956910;28;20431;-69
2023/03/28 10:18:38;;;;;;;0.97;0.93;;;11.40;70.00;;;;;;4956724;28;20407;-68
2023/03/28 10:21:14;;;;;;;3.50;1.73;;;12.00;69.10;;;;;;4956674;28;20402;-73
2023/03/28 10:23:46;;;;;;;1.00;1.00;;;12.60;68.60;;;;;;4939724;28;20416;-68
2023/03/28 10:26:20;;;;;;;1.00;1.00;;;12.90;66.40;;;;;;4937160;29;20411;-67
2023/03/28 10:28:51;;;;;;;1.50;1.40;;;12.80;64.20;;;;;;4952883;29;20442;-72
2023/03/28 10:31:28;;;;;;;1.20;1.10;;;12.40;65.10;;;;;;4956429;28;20415;-71
2023/03/28 10:33:55;;;;;;;1.10;1.00;;;11.90;64.70;;;;;;4955979;28;20400;-71
2023/03/28 10:36:33;;;;;;;1.50;1.40;;;11.50;65.60;;;;;;4954432;28;20494;-68
2023/03/28 10:39:11;;;;;;;1.37;1.27;;;11.00;66.80;;;;;;4936952;29;20417;-72
2023/03/28 10:41:58;;;;;;;1.00;1.00;;;10.60;67.70;;;;;;4937069;29;20898;-71
2023/03/28 10:44:34;;;;;;;1.23;1.20;;;10.90;70.70;;;;;;4951433;28;20447;-68
2023/03/28 10:47:04;;;;;;;1.53;1.43;;;11.30;69.40;;;;;;4956371;28;20408;-66
2023/03/28 10:49:39;;;;;;;0.90;0.90;;;11.80;66.50;;;;;;4956290;28;20956;-68
2023/03/28 10:52:20;;;;;;;1.10;1.00;;;12.50;65.70;;;;;;4955043;28;20428;-67
2023/03/28 10:55:06;;;;;;;1.33;1.23;;;13.40;63.30;;;;;;4954175;28;20437;-66
2023/03/28 10:57:41;;;;;;;2.63;1.30;;;14.10;64.10;;;;;;4955960;28;20484;-67
2023/03/28 11:00:37;;;;;;;1.70;1.27;;;14.60;61.00;;;;;;4956123;28;20408;-69
2023/03/28 11:03:14;;;;;;;1.20;1.10;;;14.70;60.60;;;;;;4955238;29;20422;-68
2023/03/28 11:05:51;;;;;;;1.50;1.20;;;14.90;60.10;;;;;;4955758;28;20452;-68
2023/03/28 11:08:29;;;;;;;2.93;1.40;;;14.60;61.30;;;;;;4949952;28;20426;-66
2023/03/28 11:11:14;;;;;;;2.40;1.60;;;15.00;61.70;;;;;;4945641;29;20414;-67
2023/03/28 11:13:54;;;;;;;4.53;1.50;;;15.30;61.30;;;;;;4945839;28;20398;-68
2023/03/28 11:16:52;;;;;;;2.83;1.10;;;15.40;60.30;;;;;;4945914;28;20399;-68
2023/03/28 11:19:45;;;;;;;1.70;1.60;;;15.10;60.10;;;;;;4945932;29;20409;-67
2023/03/28 11:22:30;;;;;;;2.83;1.53;;;14.60;58.70;;;;;;4944992;29;20440;-68
2023/03/28 11:25:13;;;;;;;1.70;1.60;;;14.10;60.20;;;;;;4941003;28;20429;-68
2023/03/28 11:27:48;;;;;;;3.70;1.73;;;13.70;60.40;;;;;;4940549;29;20399;-67
2023/03/28 11:30:20;;;;;;;1.67;1.57;;;13.00;60.90;;;;;;4943905;28;20512;-69
2023/03/28 11:32:56;;;;;;;1.53;1.43;;;12.50;61.40;;;;;;4939195;29;20497;-67
2023/03/28 11:35:36;;;;;;;1.17;1.07;;;12.20;58.80;;;;;;4946866;28;20464;-64
2023/03/28 11:38:05;;;;;;;1.47;1.47;;;12.00;58.90;;;;;;4943326;28;20418;-66
2023/03/28 11:41:02;;;;;;;5.40;1.37;;;11.90;58.80;;;;;;4943861;29;20439;-69
2023/03/28 11:43:36;;;;;;;5.00;2.40;;;11.60;60.70;;;;;;4932913;29;20518;-67
2023/03/28 11:46:10;;;;;;;4.20;1.90;;;11.40;63.90;;;;;;4936078;29;20428;-65
2023/03/28 11:49:00;;;;;;;1.57;1.47;;;11.30;62.70;;;;;;4934889;29;20423;-67
2023/03/28 11:51:37;;;;;;;1.40;1.30;;;11.00;65.00;;;;;;4946352;29;20417;-66
2023/03/28 11:54:13;;;;;;;1.63;1.50;;;10.90;63.30;;;;;;4954955;28;20908;-65
2023/03/28 11:56:45;;;;;;;1.00;1.00;;;10.80;63.20;;;;;;4955090;28;20407;-66
2023/03/28 11:59:34;;;;;;;1.43;1.37;;;10.70;63.70;;;;;;4955471;28;20447;-67
2023/03/28 12:02:26;;;;;;;1.30;1.20;;;10.60;65.90;;;;;;4955263;28;20422;-65
2023/03/28 12:05:14;;;;;;;1.60;1.50;;;10.40;64.30;;;;;;4933140;29;20486;-68
2023/03/28 12:07:43;;;;;;;1.80;1.70;;;10.40;67.10;;;;;;4943569;29;20547;-65
2023/03/28 12:10:37;;;;;;;1.45;1.35;;;10.40;67.30;;;;;;4935869;29;20458;-68
2023/03/28 12:13:30;;;;;;;1.00;1.00;;;10.60;65.60;;;;;;4948396;29;20229;-65
2023/03/28 12:16:03;;;;;;;1.77;1.67;;;10.80;66.10;;;;;;4955433;28;20185;-67
2023/03/28 12:18:45;;;;;;;2.50;1.33;;;10.80;65.20;;;;;;4944149;28;20213;-69
2023/03/28 12:21:15;;;;;;;2.13;1.52;;;10.80;65.40;;;;;;4947176;29;20267;-68
2023/03/28 12:23:59;;;;;;;1.60;1.50;;;10.80;65.60;;;;;;4948674;28;20174;-67
2023/03/28 12:26:30;;;;;;;1.05;1.05;;;10.70;63.90;;;;;;4945909;29;20416;-70
2023/03/28 12:29:02;;;;;;;3.15;1.20;;;10.60;63.90;;;;;;4948925;29;20292;-69
2023/03/28 12:31:40;;;;;;;1.30;1.20;;;10.60;64.00;;;;;;4950660;28;20187;-69
2023/03/28 12:34:23;;;;;;;2.15;2.05;;;10.60;64.90;;;;;;4958438;28;20275;-67
2023/03/28 12:37:17;;;;;;;2.55;1.10;;;10.40;64.90;;;;;;4958902;28;20587;-66
2023/03/28 12:39:58;;;;;;;4.45;1.33;;;10.60;66.90;;;;;;4949654;28;20187;-68
2023/03/28 12:42:25;;;;;;;1.23;1.23;;;10.70;67.90;;;;;;4954916;29;20669;-68
2023/03/28 12:45:04;;;;;;;1.77;1.67;;;10.80;65.20;;;;;;4956202;28;20196;-67
2023/03/28 12:47:38;;;;;;;2.40;1.80;;;10.80;65.90;;;;;;4955116;29;20432;-67
2023/03/28 12:50:09;;;;;;;2.37;1.53;;;10.80;67.00;;;;;;4956765;28;20489;-67
2023/03/28 12:52:37;;;;;;;1.45;1.35;;;10.80;65.90;;;;;;4957069;28;20415;-67
2023/03/28 12:55:27;;;;;;;5.50;1.65;;;10.80;65.40;;;;;;4947114;28;20209;-66
2023/03/28 12:58:10;;;;;;;1.70;1.10;;;10.80;67.40;;;;;;4957833;29;20177;-66
2023/03/28 13:01:04;;;;;;;1.67;1.43;;;10.90;66.90;;;;;;4958052;28;20419;-67
2023/03/28 13:03:36;;;;;;;1.40;1.30;;;11.10;65.30;;;;;;4957863;28;20394;-66
2023/03/28 13:06:26;;;;;;;2.17;1.67;;;11.00;64.90;;;;;;4957834;28;20549;-66
2023/03/28 13:09:28;;;;;;;1.13;1.13;;;10.90;64.80;;;;;;4958371;28;20414;-67
2023/03/28 13:11:58;;;;;;;1.70;1.40;;;10.90;64.40;;;;;;4958059;28;20413;-65
2023/03/28 13:14:35;;;;;;;1.60;1.50;;;10.90;65.00;;;;;;4957528;28;20224;-66
2023/03/28 13:17:09;;;;;;;6.23;1.40;;;10.80;65.10;;;;;;4958096;28;20406;-66
2023/03/28 13:19:40;;;;;;;2.40;1.23;;;10.80;65.00;;;;;;4956551;28;20533;-65
2023/03/28 13:22:23;;;;;;;1.53;1.40;;;10.90;65.60;;;;;;4957876;28;20438;-66
2023/03/28 13:24:48;;;;;;;1.63;1.52;;;10.90;64.20;;;;;;4957571;28;20828;-65
2023/03/28 13:27:29;;;;;;;4.30;1.70;;;11.00;64.40;;;;;;4957927;28;20176;-67
2023/03/28 13:30:03;;;;;;;2.50;1.27;;;11.10;66.10;;;;;;4957849;28;20353;-67
2023/03/28 13:32:34;;;;;;;1.60;1.50;;;11.20;66.40;;;;;;4957830;28;20396;-66
2023/03/28 13:35:04;;;;;;;1.37;1.27;;;11.30;63.00;;;;;;4957247;28;20846;-67
2023/03/28 13:37:41;;;;;;;1.07;0.90;;;11.30;66.90;;;;;;4957494;28;20416;-66
2023/03/28 13:40:39;;;;;;;2.37;1.93;;;11.40;66.60;;;;;;4957625;28;20460;-66
2023/03/28 13:43:28;;;;;;;2.07;1.43;;;11.60;67.50;;;;;;4956432;28;20521;-67
2023/03/28 13:46:00;;;;;;;1.47;1.37;;;11.60;62.60;;;;;;4957425;28;20426;-67
2023/03/28 13:48:35;;;;;;;1.90;1.30;;;11.50;62.60;;;;;;4957352;28;20526;-66
2023/03/28 13:51:05;;;;;;;1.20;1.10;;;11.30;61.70;;;;;;4957292;28;20446;-67
2023/03/28 13:53:34;;;;;;;1.87;1.73;;;11.40;63.70;;;;;;4955707;28;20405;-68
2023/03/28 13:56:22;;;;;;;1.20;1.10;;;11.50;64.00;;;;;;4957213;28;20419;-67
2023/03/28 13:58:54;;;;;;;1.57;1.47;;;11.70;62.40;;;;;;4957278;28;20730;-64
2023/03/28 14:01:25;;;;;;;1.50;1.50;;;11.80;61.60;;;;;;4957333;28;20403;-67
2023/03/28 14:03:53;;;;;;;1.37;1.20;;;11.80;62.00;;;;;;4957025;28;20395;-66
2023/03/28 14:06:25;;;;;;;3.80;1.47;;;11.80;63.90;;;;;;4957032;28;20511;-67
2023/03/28 14:08:54;;;;;;;1.33;1.23;;;11.70;63.60;;;;;;4957082;28;20402;-67
2023/03/28 14:11:31;;;;;;;4.53;1.87;;;11.70;62.80;;;;;;4957097;28;20832;-67
2023/03/28 14:14:13;;;;;;;1.50;1.40;;;11.70;63.80;;;;;;4956461;28;20413;-67
2023/03/28 14:16:42;;;;;;;2.00;1.87;;;11.70;62.90;;;;;;4957236;28;20413;-66
2023/03/28 14:19:11;;;;;;;2.40;2.20;;;11.50;61.60;;;;;;4956804;28;20423;-67
2023/03/28 14:21:36;;;;;;;2.07;1.90;;;11.40;62.30;;;;;;4956680;28;20185;-66
2023/03/28 14:24:05;;;;;;;1.50;1.30;;;11.40;62.50;;;;;;4955023;28;20501;-67
2023/03/28 14:26:34;;;;;;;1.67;1.57;;;11.50;63.10;;;;;;4956746;28;20425;-66
2023/03/28 14:29:06;;;;;;;3.60;1.70;;;11.60;61.70;;;;;;4956581;28;20481;-66
2023/03/28 14:31:31;;;;;;;1.50;1.40;;;11.60;60.60;;;;;;4955330;28;20429;-67
2023/03/28 14:33:59;;;;;;;1.27;1.17;;;11.60;60.10;;;;;;4956118;28;20914;-67
2023/03/28 14:36:29;;;;;;;3.23;1.50;;;11.60;59.60;;;;;;4956467;28;20177;-68
2023/03/28 14:39:01;;;;;;;3.60;3.40;;;11.70;59.90;;;;;;4956560;28;20422;-67
2023/03/28 14:41:28;;;;;;;3.13;1.30;;;11.80;60.30;;;;;;4956318;28;20442;-66
2023/03/28 14:43:56;;;;;;;1.60;1.50;;;11.80;62.20;;;;;;4956101;28;20473;-66
2023/03/28 14:46:25;;;;;;;3.23;1.60;;;11.90;62.00;;;;;;4956382;28;20459;-67
2023/03/28 14:48:52;;;;;;;2.33;1.40;;;11.90;61.10;;;;;;4956106;28;20422;-68
2023/03/28 14:51:21;;;;;;;2.60;2.40;;;11.80;59.60;;;;;;4955898;28;20767;-68
2023/03/28 14:53:47;;;;;;;4.10;1.40;;;11.80;60.10;;;;;;4955640;28;20490;-65
2023/03/28 14:56:20;;;;;;;1.50;1.40;;;11.80;60.10;;;;;;4956127;28;20401;-67
2023/03/28 14:58:48;;;;;;;0.93;0.90;;;11.70;59.10;;;;;;4956043;29;20415;-66
2023/03/28 15:01:21;;;;;;;4.00;1.07;;;11.60;59.20;;;;;;4956061;28;20487;-67
2023/03/28 15:03:55;;;;;;;0.90;0.90;;;11.50;59.40;;;;;;4955753;28;20468;-66
2023/03/28 15:06:22;;;;;;;1.30;1.20;;;11.30;60.90;;;;;;4954648;28;20528;-68
2023/03/28 15:08:48;;;;;;;1.98;1.50;;;11.20;62.20;;;;;;4954779;29;20904;-66
2023/03/28 15:11:19;;;;;;;1.80;1.45;;;11.10;64.80;;;;;;4955772;28;20256;-66
2023/03/28 15:14:00;;;;;;;1.85;1.75;;;11.10;63.90;;;;;;4955414;28;20167;-67
2023/03/28 15:16:28;;;;;;;1.10;1.10;;;11.00;62.90;;;;;;4955931;28;20170;-66
2023/03/28 15:19:17;;;;;;;1.05;1.02;;;10.90;64.50;;;;;;4953831;28;20185;-65
2023/03/28 15:21:54;;;;;;;2.05;1.35;;;10.90;64.60;;;;;;4951083;29;20248;-65
2023/03/28 15:24:21;;;;;;;1.52;1.42;;;10.70;65.00;;;;;;4954993;28;20287;-65
2023/03/28 15:26:52;;;;;;;0.80;0.80;;;10.70;64.80;;;;;;4955119;29;20190;-66
2023/03/28 15:29:20;;;;;;;1.80;1.25;;;10.70;64.90;;;;;;4935035;29;20201;-67
2023/03/28 15:31:46;;;;;;;1.30;1.13;;;10.70;64.20;;;;;;4949715;29;20260;-65
2023/03/28 15:34:23;;;;;;;0.88;0.88;;;10.70;65.00;;;;;;4943837;29;20199;-67
2023/03/28 15:37:00;;;;;;;1.35;1.27;;;10.70;63.50;;;;;;4950204;29;20205;-64
2023/03/28 15:39:31;;;;;;;1.88;1.30;;;10.60;63.30;;;;;;4953949;28;20264;-67
2023/03/28 15:42:11;;;;;;;1.00;1.00;;;10.60;64.40;;;;;;4955333;28;20181;-65
2023/03/28 15:44:40;;;;;;;1.30;1.05;;;10.50;64.50;;;;;;4954112;28;20199;-65
2023/03/28 15:47:11;;;;;;;1.10;1.00;;;10.50;63.90;;;;;;4941810;28;20173;-67
2023/03/28 15:49:38;;;;;;;1.98;1.63;;;10.50;65.00;;;;;;4943329;29;20201;-68
2023/03/28 15:52:18;;;;;;;1.00;1.00;;;10.50;64.40;;;;;;4954817;28;20580;-69
2023/03/28 15:54:49;;;;;;;1.42;1.33;;;10.40;65.90;;;;;;4953362;28;20198;-67
2023/03/28 15:57:18;;;;;;;0.90;0.90;;;10.40;64.30;;;;;;4942030;28;20179;-66
2023/03/28 15:59:47;;;;;;;1.48;1.25;;;10.30;64.70;;;;;;4941316;29;20185;-67
2023/03/28 16:02:22;;;;;;;1.48;1.35;;;10.30;64.70;;;;;;4936132;29;20172;-67
2023/03/28 16:05:02;;;;;;;1.80;1.42;;;10.40;63.90;;;;;;4938475;29;20188;-64
2023/03/28 16:07:45;;;;;;;1.33;1.23;;;10.30;65.00;;;;;;4954261;29;20187;-64
2023/03/28 16:10:13;;;;;;;1.35;1.30;;;10.30;64.80;;;;;;4957423;28;20231;-63
2023/03/28 16:12:39;;;;;;;3.78;1.45;;;10.30;64.60;;;;;;4958430;28;20187;-65
2023/03/28 16:15:06;;;;;;;1.27;1.27;;;10.30;63.80;;;;;;4958137;28;20197;-65
2023/03/28 16:17:32;;;;;;;2.15;1.42;;;10.20;64.30;;;;;;4952824;28;20179;-64
2023/03/28 16:19:58;;;;;;;0.90;0.90;;;10.20;64.50;;;;;;4951133;29;20677;-65
2023/03/28 16:22:24;;;;;;;1.73;1.47;;;10.20;64.10;;;;;;4946526;28;20275;-64
2023/03/28 16:24:51;;;;;;;1.52;1.02;;;10.20;64.50;;;;;;4956728;28;20204;-65
2023/03/28 16:27:19;;;;;;;2.13;1.30;;;10.20;64.90;;;;;;4958469;28;20513;-64
2023/03/28 16:29:45;;;;;;;1.55;1.25;;;10.20;64.20;;;;;;4957564;28;20215;-65
2023/03/28 16:32:11;;;;;;;1.20;1.20;;;10.10;64.90;;;;;;4955371;28;20204;-66
2023/03/28 16:34:38;;;;;;;1.60;1.50;;;10.10;65.30;;;;;;4957906;28;20181;-64
2023/03/28 16:37:04;;;;;;;1.30;1.30;;;10.10;65.80;;;;;;4939968;28;20189;-65
2023/03/28 16:39:29;;;;;;;1.58;1.50;;;10.00;66.20;;;;;;4944773;29;20543;-68
2023/03/28 16:41:55;;;;;;;2.27;1.70;;;10.00;66.20;;;;;;4955941;28;20181;-63
2023/03/28 16:44:20;;;;;;;5.27;2.00;;;10.00;66.30;;;;;;4957986;28;20283;-65
2023/03/28 16:46:46;;;;;;;2.73;2.53;;;9.90;67.80;;;;;;4958722;28;20180;-69
2023/03/28 16:49:12;;;;;;;13.47;8.90;;;9.90;68.10;;;;;;4951971;28;20201;-65
2023/03/28 16:51:37;;;;;;;6.90;6.00;;;9.80;69.50;;;;;;4939779;29;20575;-66
2023/03/28 16:54:03;;;;;;;2.20;1.40;;;9.80;70.20;;;;;;4951677;29;20671;-66
2023/03/28 16:56:29;;;;;;;0.93;0.93;;;9.80;69.60;;;;;;4950614;29;20258;-65
2023/03/28 16:58:55;;;;;;;1.57;1.37;;;9.80;69.30;;;;;;4949234;28;20183;-66
2023/03/28 17:01:21;;;;;;;1.23;1.10;;;9.80;69.90;;;;;;4949092;28;20539;-65
2023/03/28 17:03:48;;;;;;;4.25;2.15;;;9.70;70.30;;;;;;4940081;28;20934;-68
2023/03/28 17:06:15;;;;;;;2.85;1.65;;;9.70;70.10;;;;;;4938783;29;20197;-65
2023/03/28 17:08:41;;;;;;;1.42;1.35;;;9.70;70.40;;;;;;4945121;29;20209;-65
2023/03/28 17:11:10;;;;;;;2.60;1.60;;;9.60;70.80;;;;;;4946614;29;20188;-66
2023/03/28 17:13:37;;;;;;;3.50;2.28;;;9.60;71.10;;;;;;4944284;28;20266;-66
2023/03/28 17:16:04;;;;;;;3.17;2.22;;;9.60;71.30;;;;;;4957207;28;20270;-65
2023/03/28 17:18:30;;;;;;;1.90;1.80;;;9.50;71.80;;;;;;4957622;28;20168;-66
2023/03/28 17:21:02;;;;;;;2.10;2.00;;;9.50;72.00;;;;;;4956676;29;20526;-65
2023/03/28 17:23:28;;;;;;;4.68;2.40;;;9.40;71.80;;;;;;4955191;28;20252;-64
2023/03/28 17:25:55;;;;;;;2.40;2.22;;;9.40;71.70;;;;;;4938871;29;20216;-64
2023/03/28 17:28:24;;;;;;;2.85;2.03;;;9.30;71.80;;;;;;4939089;29;20181;-64
2023/03/28 17:30:50;;;;;;;4.38;2.45;;;9.30;72.30;;;;;;4957101;28;20211;-66
2023/03/28 17:33:16;;;;;;;2.67;1.90;;;9.20;72.90;;;;;;4957058;28;20243;-65
2023/03/28 17:35:42;;;;;;;2.83;2.50;;;9.20;74.00;;;;;;4956194;28;20193;-66
2023/03/28 17:38:08;;;;;;;2.70;2.07;;;9.10;75.70;;;;;;4957424;28;20226;-64
2023/03/28 17:40:35;;;;;;;4.27;2.50;;;9.10;74.80;;;;;;4957074;28;20580;-65
2023/03/28 17:43:00;;;;;;;3.95;1.65;;;9.00;75.20;;;;;;4948537;28;20746;-65
2023/03/28 17:45:26;;;;;;;2.10;1.90;;;9.00;75.40;;;;;;4954481;28;20208;-65
2023/03/28 17:47:54;;;;;;;1.77;1.67;;;8.90;75.80;;;;;;4948214;28;20264;-66
2023/03/28 17:50:20;;;;;;;3.45;2.15;;;8.90;76.30;;;;;;4951615;29;20232;-65
2023/03/28 17:52:46;;;;;;;3.57;2.03;;;8.80;76.90;;;;;;4955020;28;20212;-68
2023/03/28 17:55:12;;;;;;;3.30;2.33;;;8.80;77.40;;;;;;4955451;28;20437;-66
2023/03/28 17:57:37;;;;;;;3.80;2.00;;;8.70;78.00;;;;;;4955888;28;20171;-63
2023/03/28 18:00:06;;;;;;;1.97;1.87;;;8.70;78.20;;;;;;4954114;28;20354;-63
2023/03/28 18:02:32;;;;;;;2.83;1.92;;;8.70;78.40;;;;;;4942567;28;20180;-64
2023/03/28 18:04:58;;;;;;;2.20;2.03;;;8.60;78.70;;;;;;4938033;29;20213;-65
2023/03/28 18:07:24;;;;;;;1.93;1.83;;;8.60;78.60;;;;;;4945249;29;20192;-63
2023/03/28 18:09:50;;;;;;;2.42;1.90;;;8.60;78.80;;;;;;4945617;29;20661;-64
2023/03/28 18:12:17;;;;;;;2.78;1.98;;;8.60;78.90;;;;;;4938593;29;20184;-65
2023/03/28 18:14:43;;;;;;;2.25;1.95;;;8.50;78.90;;;;;;4946458;28;20676;-64
2023/03/28 18:17:09;;;;;;;2.60;2.40;;;8.60;79.60;;;;;;4945215;29;20186;-63
2023/03/28 18:19:35;;;;;;;2.22;2.13;;;8.50;79.20;;;;;;4954874;29;20192;-65